Pagrindinis puslapis
METAR-TAF:

METAR-TAF

Oro uostai :

Tena, Ekvadoras

platuma: 01-03-35S, ilguma: 77-35-00W, Aukštis: 376 m

Dabartinis oras

Ataskaita buvo paskelbta 45 minutes, ne 11:00 UTC
Vėjas 1 kt iš Vakarų/Pietvakarių
Temperatūra 22°C
Drėgmė 100%
Slėgis 1013 hPa
Matomumas 10 km arba daugiau
Mažai debesys ne aukštis 300 ft
Išsisklaidę debesys ne aukštis 3300 ft
Su prošvaistėmis ne aukštis 10000 ft

METAR: SEJD 281100Z 25001KT 9999 FEW003 SCT033 BKN100 22/22 Q1013 RMK A2993

Laikas: 06:45 (11:45 UTC)


TAF: trūkstamas

Orai ataskaitas ir orų prognozės (METAR, TAF).

turimą stotys yra geltonos ir raudonos taškus žemėlapyje.

Perkelti pele per norėdami pamatyti stoties vardą.

Tada spustelėkite, norėdami matyti oro stebėjimo ir prognozės.

Norėdami pakeisti žemėlapį: spustelėkite ant žalios mygtukų su juodo kryžiaus žemyn,; žalią mygtuką su brūkšneliu, jei norite nutolinti; arba žalių rodyklių gretimoms žemėlapius.


METAR-TAF: